sensor_id;sensor_type;location;lat;lon;timestamp;P1;durP1;ratioP1;P2;durP2;ratioP2
37231;SDS011;23125;48.156;15.954;2023-09-30T00:00:18;5.72;;;3.83;;
37231;SDS011;23125;48.156;15.954;2023-09-30T00:02:44;3.97;;;3.47;;
37231;SDS011;23125;48.156;15.954;2023-09-30T00:05:10;7.15;;;4.00;;
37231;SDS011;23125;48.156;15.954;2023-09-30T00:07:36;5.05;;;3.60;;
37231;SDS011;23125;48.156;15.954;2023-09-30T00:10:02;5.72;;;3.40;;
37231;SDS011;23125;48.156;15.954;2023-09-30T00:12:29;5.72;;;3.78;;
37231;SDS011;23125;48.156;15.954;2023-09-30T00:14:56;6.05;;;3.67;;
37231;SDS011;23125;48.156;15.954;2023-09-30T00:17:22;6.18;;;4.20;;
37231;SDS011;23125;48.156;15.954;2023-09-30T00:19:48;5.30;;;3.53;;
37231;SDS011;23125;48.156;15.954;2023-09-30T00:22:14;4.63;;;3.85;;
37231;SDS011;23125;48.156;15.954;2023-09-30T00:24:40;4.72;;;3.80;;
37231;SDS011;23125;48.156;15.954;2023-09-30T00:27:06;5.72;;;3.92;;
37231;SDS011;23125;48.156;15.954;2023-09-30T00:29:32;5.45;;;3.47;;
37231;SDS011;23125;48.156;15.954;2023-09-30T00:31:59;7.05;;;4.15;;
37231;SDS011;23125;48.156;15.954;2023-09-30T00:34:25;5.28;;;3.97;;
37231;SDS011;23125;48.156;15.954;2023-09-30T00:36:51;4.50;;;3.30;;
37231;SDS011;23125;48.156;15.954;2023-09-30T00:39:17;5.50;;;3.38;;
37231;SDS011;23125;48.156;15.954;2023-09-30T00:41:43;5.05;;;3.53;;
37231;SDS011;23125;48.156;15.954;2023-09-30T00:44:09;5.35;;;3.67;;
37231;SDS011;23125;48.156;15.954;2023-09-30T00:46:36;4.63;;;3.83;;
37231;SDS011;23125;48.156;15.954;2023-09-30T00:49:05;4.45;;;3.35;;
37231;SDS011;23125;48.156;15.954;2023-09-30T00:51:31;5.10;;;3.88;;
37231;SDS011;23125;48.156;15.954;2023-09-30T00:53:59;4.63;;;3.72;;
37231;SDS011;23125;48.156;15.954;2023-09-30T00:56:26;6.32;;;4.25;;
37231;SDS011;23125;48.156;15.954;2023-09-30T00:58:55;4.40;;;3.38;;
37231;SDS011;23125;48.156;15.954;2023-09-30T01:01:22;3.97;;;3.42;;
37231;SDS011;23125;48.156;15.954;2023-09-30T01:03:48;5.38;;;4.10;;
37231;SDS011;23125;48.156;15.954;2023-09-30T01:06:14;5.05;;;3.70;;
37231;SDS011;23125;48.156;15.954;2023-09-30T01:08:41;6.03;;;4.05;;
37231;SDS011;23125;48.156;15.954;2023-09-30T01:11:07;6.15;;;3.65;;
37231;SDS011;23125;48.156;15.954;2023-09-30T01:13:34;5.07;;;3.72;;
37231;SDS011;23125;48.156;15.954;2023-09-30T01:16:05;5.53;;;3.70;;
37231;SDS011;23125;48.156;15.954;2023-09-30T01:18:32;4.63;;;3.58;;
37231;SDS011;23125;48.156;15.954;2023-09-30T01:21:02;6.72;;;3.70;;
37231;SDS011;23125;48.156;15.954;2023-09-30T01:23:30;5.93;;;4.45;;
37231;SDS011;23125;48.156;15.954;2023-09-30T01:25:57;6.18;;;4.00;;
37231;SDS011;23125;48.156;15.954;2023-09-30T01:28:26;5.13;;;3.80;;
37231;SDS011;23125;48.156;15.954;2023-09-30T01:30:52;6.00;;;3.88;;
37231;SDS011;23125;48.156;15.954;2023-09-30T01:33:18;5.05;;;4.15;;
37231;SDS011;23125;48.156;15.954;2023-09-30T01:35:44;4.50;;;3.92;;
37231;SDS011;23125;48.156;15.954;2023-09-30T01:38:10;5.38;;;3.80;;
37231;SDS011;23125;48.156;15.954;2023-09-30T01:40:36;5.32;;;3.70;;
37231;SDS011;23125;48.156;15.954;2023-09-30T01:43:05;5.18;;;3.53;;
37231;SDS011;23125;48.156;15.954;2023-09-30T01:45:31;4.88;;;3.72;;
37231;SDS011;23125;48.156;15.954;2023-09-30T01:47:57;7.32;;;3.80;;
37231;SDS011;23125;48.156;15.954;2023-09-30T01:50:23;6.45;;;4.60;;
37231;SDS011;23125;48.156;15.954;2023-09-30T01:52:49;4.93;;;3.95;;
37231;SDS011;23125;48.156;15.954;2023-09-30T01:55:15;4.95;;;3.90;;
37231;SDS011;23125;48.156;15.954;2023-09-30T01:57:41;4.75;;;4.05;;
37231;SDS011;23125;48.156;15.954;2023-09-30T02:00:07;5.60;;;4.13;;
37231;SDS011;23125;48.156;15.954;2023-09-30T02:02:34;5.43;;;4.00;;
37231;SDS011;23125;48.156;15.954;2023-09-30T02:05:02;6.47;;;3.95;;
37231;SDS011;23125;48.156;15.954;2023-09-30T02:07:28;5.50;;;4.15;;
37231;SDS011;23125;48.156;15.954;2023-09-30T02:09:54;5.60;;;4.30;;
37231;SDS011;23125;48.156;15.954;2023-09-30T02:12:20;5.35;;;3.85;;
37231;SDS011;23125;48.156;15.954;2023-09-30T02:14:46;5.45;;;3.35;;
37231;SDS011;23125;48.156;15.954;2023-09-30T02:17:12;5.78;;;3.78;;
37231;SDS011;23125;48.156;15.954;2023-09-30T02:19:39;7.10;;;4.32;;
37231;SDS011;23125;48.156;15.954;2023-09-30T02:22:06;5.45;;;3.70;;
37231;SDS011;23125;48.156;15.954;2023-09-30T02:24:32;5.72;;;3.70;;
37231;SDS011;23125;48.156;15.954;2023-09-30T02:26:58;7.43;;;4.25;;
37231;SDS011;23125;48.156;15.954;2023-09-30T02:29:24;7.88;;;4.07;;
37231;SDS011;23125;48.156;15.954;2023-09-30T02:31:50;5.57;;;3.83;;
37231;SDS011;23125;48.156;15.954;2023-09-30T02:34:18;6.07;;;4.43;;
37231;SDS011;23125;48.156;15.954;2023-09-30T02:36:44;7.00;;;4.10;;
37231;SDS011;23125;48.156;15.954;2023-09-30T02:39:10;5.57;;;4.15;;
37231;SDS011;23125;48.156;15.954;2023-09-30T02:41:36;7.97;;;5.03;;
37231;SDS011;23125;48.156;15.954;2023-09-30T02:44:03;7.45;;;4.60;;
37231;SDS011;23125;48.156;15.954;2023-09-30T02:46:29;7.07;;;4.32;;
37231;SDS011;23125;48.156;15.954;2023-09-30T02:48:55;8.68;;;5.72;;
37231;SDS011;23125;48.156;15.954;2023-09-30T02:51:21;7.47;;;4.90;;
37231;SDS011;23125;48.156;15.954;2023-09-30T02:53:47;7.30;;;4.78;;
37231;SDS011;23125;48.156;15.954;2023-09-30T02:56:13;6.90;;;4.35;;
37231;SDS011;23125;48.156;15.954;2023-09-30T02:58:39;6.90;;;4.72;;
37231;SDS011;23125;48.156;15.954;2023-09-30T03:01:06;6.63;;;4.53;;
37231;SDS011;23125;48.156;15.954;2023-09-30T03:03:35;8.30;;;4.75;;
37231;SDS011;23125;48.156;15.954;2023-09-30T03:06:01;8.52;;;5.10;;
37231;SDS011;23125;48.156;15.954;2023-09-30T03:08:26;6.65;;;4.88;;
37231;SDS011;23125;48.156;15.954;2023-09-30T03:10:52;7.50;;;4.60;;
37231;SDS011;23125;48.156;15.954;2023-09-30T03:13:18;8.27;;;4.93;;
37231;SDS011;23125;48.156;15.954;2023-09-30T03:15:47;8.85;;;4.75;;
37231;SDS011;23125;48.156;15.954;2023-09-30T03:18:15;7.63;;;5.10;;
37231;SDS011;23125;48.156;15.954;2023-09-30T03:20:42;10.30;;;4.65;;
37231;SDS011;23125;48.156;15.954;2023-09-30T03:23:09;7.10;;;4.65;;
37231;SDS011;23125;48.156;15.954;2023-09-30T03:25:35;6.75;;;5.00;;
37231;SDS011;23125;48.156;15.954;2023-09-30T03:28:01;8.52;;;5.15;;
37231;SDS011;23125;48.156;15.954;2023-09-30T03:30:28;9.68;;;5.43;;
37231;SDS011;23125;48.156;15.954;2023-09-30T03:32:54;9.32;;;4.85;;
37231;SDS011;23125;48.156;15.954;2023-09-30T03:35:20;8.95;;;5.90;;
37231;SDS011;23125;48.156;15.954;2023-09-30T03:37:46;7.53;;;5.10;;
37231;SDS011;23125;48.156;15.954;2023-09-30T03:40:13;15.32;;;7.25;;
37231;SDS011;23125;48.156;15.954;2023-09-30T03:42:43;12.07;;;7.00;;
37231;SDS011;23125;48.156;15.954;2023-09-30T03:45:10;12.30;;;6.43;;
37231;SDS011;23125;48.156;15.954;2023-09-30T03:47:40;12.60;;;6.80;;
37231;SDS011;23125;48.156;15.954;2023-09-30T03:50:07;12.32;;;6.40;;
37231;SDS011;23125;48.156;15.954;2023-09-30T03:52:39;15.40;;;6.57;;
37231;SDS011;23125;48.156;15.954;2023-09-30T03:55:09;14.25;;;7.57;;
37231;SDS011;23125;48.156;15.954;2023-09-30T03:57:37;16.30;;;7.63;;
37231;SDS011;23125;48.156;15.954;2023-09-30T04:00:03;15.93;;;7.53;;
37231;SDS011;23125;48.156;15.954;2023-09-30T04:02:33;15.10;;;7.03;;
37231;SDS011;23125;48.156;15.954;2023-09-30T04:04:59;15.15;;;7.15;;
37231;SDS011;23125;48.156;15.954;2023-09-30T04:07:30;17.05;;;7.80;;
37231;SDS011;23125;48.156;15.954;2023-09-30T04:09:57;14.63;;;6.93;;
37231;SDS011;23125;48.156;15.954;2023-09-30T04:12:26;13.73;;;7.40;;
37231;SDS011;23125;48.156;15.954;2023-09-30T04:14:52;17.15;;;8.05;;
37231;SDS011;23125;48.156;15.954;2023-09-30T04:17:18;15.55;;;7.32;;
37231;SDS011;23125;48.156;15.954;2023-09-30T04:19:44;16.25;;;7.68;;
37231;SDS011;23125;48.156;15.954;2023-09-30T04:22:11;15.45;;;8.13;;
37231;SDS011;23125;48.156;15.954;2023-09-30T04:24:38;16.83;;;7.65;;
37231;SDS011;23125;48.156;15.954;2023-09-30T04:27:05;16.77;;;8.18;;
37231;SDS011;23125;48.156;15.954;2023-09-30T04:29:33;13.90;;;7.45;;
37231;SDS011;23125;48.156;15.954;2023-09-30T04:31:59;16.08;;;9.20;;
37231;SDS011;23125;48.156;15.954;2023-09-30T04:34:26;16.05;;;8.77;;
37231;SDS011;23125;48.156;15.954;2023-09-30T04:36:52;19.40;;;9.35;;
37231;SDS011;23125;48.156;15.954;2023-09-30T04:39:19;16.15;;;7.35;;
37231;SDS011;23125;48.156;15.954;2023-09-30T04:41:45;20.73;;;8.75;;
37231;SDS011;23125;48.156;15.954;2023-09-30T04:44:12;15.57;;;8.45;;
37231;SDS011;23125;48.156;15.954;2023-09-30T04:46:38;14.05;;;7.68;;
37231;SDS011;23125;48.156;15.954;2023-09-30T04:49:08;20.05;;;7.93;;
37231;SDS011;23125;48.156;15.954;2023-09-30T04:51:35;16.55;;;8.38;;
37231;SDS011;23125;48.156;15.954;2023-09-30T04:54:01;16.80;;;7.82;;
37231;SDS011;23125;48.156;15.954;2023-09-30T04:56:29;17.70;;;7.60;;
37231;SDS011;23125;48.156;15.954;2023-09-30T04:58:55;16.45;;;7.63;;
37231;SDS011;23125;48.156;15.954;2023-09-30T05:01:22;15.25;;;7.97;;
37231;SDS011;23125;48.156;15.954;2023-09-30T05:03:48;16.60;;;7.30;;
37231;SDS011;23125;48.156;15.954;2023-09-30T05:06:15;17.58;;;8.05;;
37231;SDS011;23125;48.156;15.954;2023-09-30T05:08:41;16.88;;;7.68;;
37231;SDS011;23125;48.156;15.954;2023-09-30T05:11:07;15.57;;;7.97;;
37231;SDS011;23125;48.156;15.954;2023-09-30T05:13:33;20.30;;;8.82;;
37231;SDS011;23125;48.156;15.954;2023-09-30T05:15:59;17.75;;;7.97;;
37231;SDS011;23125;48.156;15.954;2023-09-30T05:18:25;20.02;;;8.38;;
37231;SDS011;23125;48.156;15.954;2023-09-30T05:20:51;19.48;;;8.07;;
37231;SDS011;23125;48.156;15.954;2023-09-30T05:23:17;20.60;;;8.45;;
37231;SDS011;23125;48.156;15.954;2023-09-30T05:25:44;19.00;;;8.63;;
37231;SDS011;23125;48.156;15.954;2023-09-30T05:28:11;16.70;;;7.60;;
37231;SDS011;23125;48.156;15.954;2023-09-30T05:30:39;17.98;;;7.82;;
37231;SDS011;23125;48.156;15.954;2023-09-30T05:33:06;19.75;;;7.22;;
37231;SDS011;23125;48.156;15.954;2023-09-30T05:35:32;20.95;;;8.43;;
37231;SDS011;23125;48.156;15.954;2023-09-30T05:37:58;17.52;;;7.72;;
37231;SDS011;23125;48.156;15.954;2023-09-30T05:40:24;15.63;;;7.50;;
37231;SDS011;23125;48.156;15.954;2023-09-30T05:42:54;20.55;;;8.93;;
37231;SDS011;23125;48.156;15.954;2023-09-30T05:45:24;18.73;;;7.40;;
37231;SDS011;23125;48.156;15.954;2023-09-30T05:47:55;20.77;;;9.15;;
37231;SDS011;23125;48.156;15.954;2023-09-30T05:50:21;18.40;;;7.97;;
37231;SDS011;23125;48.156;15.954;2023-09-30T05:52:54;19.17;;;7.50;;
37231;SDS011;23125;48.156;15.954;2023-09-30T05:55:21;18.75;;;7.65;;
37231;SDS011;23125;48.156;15.954;2023-09-30T05:57:50;18.70;;;8.23;;
37231;SDS011;23125;48.156;15.954;2023-09-30T06:00:20;18.95;;;7.95;;
37231;SDS011;23125;48.156;15.954;2023-09-30T06:02:51;22.15;;;8.70;;
37231;SDS011;23125;48.156;15.954;2023-09-30T06:07:47;20.13;;;8.45;;
37231;SDS011;23125;48.156;15.954;2023-09-30T06:10:14;20.13;;;7.70;;
37231;SDS011;23125;48.156;15.954;2023-09-30T06:12:46;18.33;;;7.28;;
37231;SDS011;23125;48.156;15.954;2023-09-30T06:15:14;17.17;;;6.88;;
37231;SDS011;23125;48.156;15.954;2023-09-30T06:17:41;17.77;;;7.32;;
37231;SDS011;23125;48.156;15.954;2023-09-30T06:20:08;17.90;;;8.43;;
37231;SDS011;23125;48.156;15.954;2023-09-30T06:22:43;19.52;;;7.28;;
37231;SDS011;23125;48.156;15.954;2023-09-30T06:25:14;18.67;;;8.20;;
37231;SDS011;23125;48.156;15.954;2023-09-30T06:27:42;20.98;;;8.63;;
37231;SDS011;23125;48.156;15.954;2023-09-30T06:30:09;19.80;;;7.68;;
37231;SDS011;23125;48.156;15.954;2023-09-30T06:32:35;20.35;;;8.07;;
37231;SDS011;23125;48.156;15.954;2023-09-30T06:35:02;21.90;;;8.52;;
37231;SDS011;23125;48.156;15.954;2023-09-30T06:37:29;21.23;;;8.32;;
37231;SDS011;23125;48.156;15.954;2023-09-30T06:39:55;18.48;;;7.82;;
37231;SDS011;23125;48.156;15.954;2023-09-30T06:42:21;20.73;;;8.88;;
37231;SDS011;23125;48.156;15.954;2023-09-30T06:44:47;21.65;;;7.65;;
37231;SDS011;23125;48.156;15.954;2023-09-30T06:47:13;18.60;;;7.28;;
37231;SDS011;23125;48.156;15.954;2023-09-30T06:49:39;16.42;;;7.18;;
37231;SDS011;23125;48.156;15.954;2023-09-30T06:52:05;20.13;;;8.25;;
37231;SDS011;23125;48.156;15.954;2023-09-30T06:54:32;19.73;;;8.23;;
37231;SDS011;23125;48.156;15.954;2023-09-30T06:56:58;22.00;;;8.43;;
37231;SDS011;23125;48.156;15.954;2023-09-30T06:59:25;19.15;;;7.93;;
37231;SDS011;23125;48.156;15.954;2023-09-30T07:01:51;20.80;;;8.07;;
37231;SDS011;23125;48.156;15.954;2023-09-30T07:04:17;20.90;;;8.18;;
37231;SDS011;23125;48.156;15.954;2023-09-30T07:06:43;17.33;;;7.35;;
37231;SDS011;23125;48.156;15.954;2023-09-30T07:09:09;18.13;;;7.47;;
37231;SDS011;23125;48.156;15.954;2023-09-30T07:11:37;18.20;;;7.35;;
37231;SDS011;23125;48.156;15.954;2023-09-30T07:14:03;17.65;;;7.15;;
37231;SDS011;23125;48.156;15.954;2023-09-30T07:16:29;19.30;;;7.03;;
37231;SDS011;23125;48.156;15.954;2023-09-30T07:18:55;16.17;;;7.20;;
37231;SDS011;23125;48.156;15.954;2023-09-30T07:21:21;16.00;;;7.43;;
37231;SDS011;23125;48.156;15.954;2023-09-30T07:23:47;18.85;;;7.85;;
37231;SDS011;23125;48.156;15.954;2023-09-30T07:26:13;14.80;;;6.70;;
37231;SDS011;23125;48.156;15.954;2023-09-30T07:28:39;18.33;;;7.80;;
37231;SDS011;23125;48.156;15.954;2023-09-30T07:31:06;18.23;;;7.55;;
37231;SDS011;23125;48.156;15.954;2023-09-30T07:33:31;19.05;;;7.65;;
37231;SDS011;23125;48.156;15.954;2023-09-30T07:35:57;17.73;;;6.95;;
37231;SDS011;23125;48.156;15.954;2023-09-30T07:38:23;18.73;;;7.93;;
37231;SDS011;23125;48.156;15.954;2023-09-30T07:40:49;19.35;;;7.85;;
37231;SDS011;23125;48.156;15.954;2023-09-30T07:43:15;16.80;;;7.30;;
37231;SDS011;23125;48.156;15.954;2023-09-30T07:45:43;18.20;;;7.50;;
37231;SDS011;23125;48.156;15.954;2023-09-30T07:48:09;19.75;;;7.80;;
37231;SDS011;23125;48.156;15.954;2023-09-30T07:50:35;18.67;;;7.75;;
37231;SDS011;23125;48.156;15.954;2023-09-30T07:53:03;17.48;;;7.00;;
37231;SDS011;23125;48.156;15.954;2023-09-30T07:55:29;16.05;;;7.53;;
37231;SDS011;23125;48.156;15.954;2023-09-30T07:57:56;19.42;;;7.43;;
37231;SDS011;23125;48.156;15.954;2023-09-30T08:00:24;16.70;;;7.63;;
37231;SDS011;23125;48.156;15.954;2023-09-30T08:02:50;17.05;;;7.60;;
37231;SDS011;23125;48.156;15.954;2023-09-30T08:05:17;16.02;;;6.95;;
37231;SDS011;23125;48.156;15.954;2023-09-30T08:07:43;16.50;;;7.43;;
37231;SDS011;23125;48.156;15.954;2023-09-30T08:10:11;17.15;;;6.88;;
37231;SDS011;23125;48.156;15.954;2023-09-30T08:12:42;14.82;;;6.78;;
37231;SDS011;23125;48.156;15.954;2023-09-30T08:15:11;16.70;;;7.25;;
37231;SDS011;23125;48.156;15.954;2023-09-30T08:17:37;15.05;;;6.57;;
37231;SDS011;23125;48.156;15.954;2023-09-30T08:20:03;16.77;;;7.32;;
37231;SDS011;23125;48.156;15.954;2023-09-30T08:22:30;14.88;;;6.85;;
37231;SDS011;23125;48.156;15.954;2023-09-30T08:24:56;17.48;;;6.82;;
37231;SDS011;23125;48.156;15.954;2023-09-30T08:27:22;14.75;;;6.22;;
37231;SDS011;23125;48.156;15.954;2023-09-30T08:29:51;17.48;;;7.53;;
37231;SDS011;23125;48.156;15.954;2023-09-30T08:32:18;13.85;;;5.95;;
37231;SDS011;23125;48.156;15.954;2023-09-30T08:34:44;17.92;;;7.30;;
37231;SDS011;23125;48.156;15.954;2023-09-30T08:37:10;16.92;;;6.82;;
37231;SDS011;23125;48.156;15.954;2023-09-30T08:39:39;16.20;;;7.07;;
37231;SDS011;23125;48.156;15.954;2023-09-30T08:42:08;18.70;;;6.97;;
37231;SDS011;23125;48.156;15.954;2023-09-30T08:44:39;16.45;;;6.55;;
37231;SDS011;23125;48.156;15.954;2023-09-30T08:47:05;15.43;;;6.25;;
37231;SDS011;23125;48.156;15.954;2023-09-30T08:49:37;15.10;;;6.25;;
37231;SDS011;23125;48.156;15.954;2023-09-30T08:52:06;16.17;;;6.35;;
37231;SDS011;23125;48.156;15.954;2023-09-30T08:54:38;15.30;;;6.78;;
37231;SDS011;23125;48.156;15.954;2023-09-30T08:57:04;15.50;;;6.40;;
37231;SDS011;23125;48.156;15.954;2023-09-30T08:59:31;14.45;;;5.75;;
37231;SDS011;23125;48.156;15.954;2023-09-30T09:04:25;17.40;;;6.38;;
37231;SDS011;23125;48.156;15.954;2023-09-30T09:06:55;14.52;;;6.07;;
37231;SDS011;23125;48.156;15.954;2023-09-30T09:09:21;14.65;;;6.68;;
37231;SDS011;23125;48.156;15.954;2023-09-30T09:11:48;19.50;;;6.30;;
37231;SDS011;23125;48.156;15.954;2023-09-30T09:14:14;14.60;;;6.22;;
37231;SDS011;23125;48.156;15.954;2023-09-30T09:16:53;15.05;;;6.63;;
37231;SDS011;23125;48.156;15.954;2023-09-30T09:19:20;14.77;;;6.05;;
37231;SDS011;23125;48.156;15.954;2023-09-30T09:21:57;16.50;;;6.00;;
37231;SDS011;23125;48.156;15.954;2023-09-30T09:24:34;13.88;;;5.75;;
37231;SDS011;23125;48.156;15.954;2023-09-30T09:29:34;13.93;;;6.25;;
37231;SDS011;23125;48.156;15.954;2023-09-30T09:32:22;13.73;;;6.43;;
37231;SDS011;23125;48.156;15.954;2023-09-30T09:34:59;14.50;;;5.40;;
37231;SDS011;23125;48.156;15.954;2023-09-30T09:37:27;14.57;;;6.15;;
37231;SDS011;23125;48.156;15.954;2023-09-30T09:39:54;14.27;;;5.90;;
37231;SDS011;23125;48.156;15.954;2023-09-30T09:42:31;12.73;;;5.88;;
37231;SDS011;23125;48.156;15.954;2023-09-30T09:45:01;17.42;;;6.15;;
37231;SDS011;23125;48.156;15.954;2023-09-30T09:47:29;15.52;;;6.30;;
37231;SDS011;23125;48.156;15.954;2023-09-30T09:49:57;13.63;;;6.05;;
37231;SDS011;23125;48.156;15.954;2023-09-30T09:52:24;12.35;;;5.47;;
37231;SDS011;23125;48.156;15.954;2023-09-30T09:54:51;12.68;;;4.90;;
37231;SDS011;23125;48.156;15.954;2023-09-30T09:57:18;11.15;;;4.72;;
37231;SDS011;23125;48.156;15.954;2023-09-30T09:59:44;14.00;;;5.47;;
37231;SDS011;23125;48.156;15.954;2023-09-30T10:02:15;15.18;;;5.85;;
37231;SDS011;23125;48.156;15.954;2023-09-30T10:04:46;12.23;;;5.60;;
37231;SDS011;23125;48.156;15.954;2023-09-30T10:07:18;14.38;;;5.57;;
37231;SDS011;23125;48.156;15.954;2023-09-30T10:09:50;12.43;;;5.18;;
37231;SDS011;23125;48.156;15.954;2023-09-30T10:12:18;12.40;;;5.88;;
37231;SDS011;23125;48.156;15.954;2023-09-30T10:14:51;14.13;;;5.93;;
37231;SDS011;23125;48.156;15.954;2023-09-30T10:17:17;11.90;;;5.13;;
37231;SDS011;23125;48.156;15.954;2023-09-30T10:20:16;12.40;;;5.25;;
37231;SDS011;23125;48.156;15.954;2023-09-30T10:22:35;11.82;;;5.78;;
37231;SDS011;23125;48.156;15.954;2023-09-30T10:25:01;12.40;;;5.47;;
37231;SDS011;23125;48.156;15.954;2023-09-30T10:27:47;12.90;;;5.70;;
37231;SDS011;23125;48.156;15.954;2023-09-30T10:30:13;12.93;;;5.38;;
37231;SDS011;23125;48.156;15.954;2023-09-30T10:35:19;12.43;;;5.60;;
37231;SDS011;23125;48.156;15.954;2023-09-30T10:37:46;13.23;;;5.85;;
37231;SDS011;23125;48.156;15.954;2023-09-30T10:40:29;10.93;;;5.72;;
37231;SDS011;23125;48.156;15.954;2023-09-30T10:42:57;11.93;;;5.47;;
37231;SDS011;23125;48.156;15.954;2023-09-30T10:50:52;12.30;;;6.10;;
37231;SDS011;23125;48.156;15.954;2023-09-30T10:53:24;13.68;;;6.07;;
37231;SDS011;23125;48.156;15.954;2023-09-30T10:55:53;14.07;;;6.43;;
37231;SDS011;23125;48.156;15.954;2023-09-30T10:58:39;13.95;;;6.13;;
37231;SDS011;23125;48.156;15.954;2023-09-30T11:01:06;12.68;;;5.85;;
37231;SDS011;23125;48.156;15.954;2023-09-30T11:03:32;16.85;;;6.63;;
37231;SDS011;23125;48.156;15.954;2023-09-30T11:05:58;13.05;;;5.95;;
37231;SDS011;23125;48.156;15.954;2023-09-30T11:08:25;13.23;;;5.65;;
37231;SDS011;23125;48.156;15.954;2023-09-30T11:10:57;14.55;;;6.20;;
37231;SDS011;23125;48.156;15.954;2023-09-30T11:13:30;15.57;;;6.10;;
37231;SDS011;23125;48.156;15.954;2023-09-30T11:16:01;18.83;;;6.80;;
37231;SDS011;23125;48.156;15.954;2023-09-30T11:18:34;13.77;;;6.68;;
37231;SDS011;23125;48.156;15.954;2023-09-30T11:21:08;14.05;;;6.50;;
37231;SDS011;23125;48.156;15.954;2023-09-30T11:23:38;13.30;;;6.43;;
37231;SDS011;23125;48.156;15.954;2023-09-30T11:26:06;17.85;;;6.65;;
37231;SDS011;23125;48.156;15.954;2023-09-30T11:28:42;16.27;;;7.40;;
37231;SDS011;23125;48.156;15.954;2023-09-30T11:31:10;15.90;;;6.68;;
37231;SDS011;23125;48.156;15.954;2023-09-30T11:33:48;17.25;;;7.20;;
37231;SDS011;23125;48.156;15.954;2023-09-30T11:36:20;15.02;;;6.65;;
37231;SDS011;23125;48.156;15.954;2023-09-30T11:38:47;14.90;;;6.55;;
37231;SDS011;23125;48.156;15.954;2023-09-30T11:41:15;16.42;;;7.40;;
37231;SDS011;23125;48.156;15.954;2023-09-30T11:52:07;15.80;;;6.40;;
37231;SDS011;23125;48.156;15.954;2023-09-30T11:54:36;16.08;;;7.18;;
37231;SDS011;23125;48.156;15.954;2023-09-30T11:57:12;17.58;;;7.00;;
37231;SDS011;23125;48.156;15.954;2023-09-30T11:59:46;18.00;;;6.68;;
37231;SDS011;23125;48.156;15.954;2023-09-30T12:02:13;16.20;;;7.38;;
37231;SDS011;23125;48.156;15.954;2023-09-30T12:04:44;17.60;;;7.18;;
37231;SDS011;23125;48.156;15.954;2023-09-30T12:07:12;18.52;;;6.97;;
37231;SDS011;23125;48.156;15.954;2023-09-30T12:09:38;16.83;;;7.50;;
37231;SDS011;23125;48.156;15.954;2023-09-30T12:12:05;18.90;;;8.00;;
37231;SDS011;23125;48.156;15.954;2023-09-30T12:14:35;18.05;;;7.35;;
37231;SDS011;23125;48.156;15.954;2023-09-30T12:17:01;14.98;;;6.65;;
37231;SDS011;23125;48.156;15.954;2023-09-30T12:19:27;17.77;;;7.45;;
37231;SDS011;23125;48.156;15.954;2023-09-30T12:21:53;17.08;;;7.32;;
37231;SDS011;23125;48.156;15.954;2023-09-30T12:24:18;16.15;;;7.10;;
37231;SDS011;23125;48.156;15.954;2023-09-30T12:26:46;18.25;;;8.23;;
37231;SDS011;23125;48.156;15.954;2023-09-30T12:29:18;18.20;;;8.23;;
37231;SDS011;23125;48.156;15.954;2023-09-30T12:31:48;19.27;;;8.75;;
37231;SDS011;23125;48.156;15.954;2023-09-30T12:34:15;17.63;;;7.83;;
37231;SDS011;23125;48.156;15.954;2023-09-30T12:36:42;18.85;;;7.72;;
37231;SDS011;23125;48.156;15.954;2023-09-30T12:39:09;18.48;;;8.25;;
37231;SDS011;23125;48.156;15.954;2023-09-30T12:41:37;18.00;;;7.60;;
37231;SDS011;23125;48.156;15.954;2023-09-30T12:44:04;21.02;;;9.13;;
37231;SDS011;23125;48.156;15.954;2023-09-30T12:46:31;19.75;;;8.13;;
37231;SDS011;23125;48.156;15.954;2023-09-30T12:49:00;20.10;;;8.70;;
37231;SDS011;23125;48.156;15.954;2023-09-30T12:51:28;21.08;;;9.15;;
37231;SDS011;23125;48.156;15.954;2023-09-30T12:53:54;20.13;;;9.00;;
37231;SDS011;23125;48.156;15.954;2023-09-30T12:56:22;18.42;;;8.10;;
37231;SDS011;23125;48.156;15.954;2023-09-30T12:58:48;19.92;;;8.70;;
37231;SDS011;23125;48.156;15.954;2023-09-30T13:01:14;19.80;;;8.50;;
37231;SDS011;23125;48.156;15.954;2023-09-30T13:03:41;20.55;;;8.88;;
37231;SDS011;23125;48.156;15.954;2023-09-30T13:06:07;20.88;;;8.98;;
37231;SDS011;23125;48.156;15.954;2023-09-30T13:08:33;20.98;;;9.13;;
37231;SDS011;23125;48.156;15.954;2023-09-30T13:11:00;18.48;;;8.50;;
37231;SDS011;23125;48.156;15.954;2023-09-30T13:13:28;19.42;;;9.32;;
37231;SDS011;23125;48.156;15.954;2023-09-30T13:15:56;20.83;;;8.75;;
37231;SDS011;23125;48.156;15.954;2023-09-30T13:18:23;20.50;;;9.57;;
37231;SDS011;23125;48.156;15.954;2023-09-30T13:20:49;20.38;;;8.13;;
37231;SDS011;23125;48.156;15.954;2023-09-30T13:23:17;21.85;;;10.15;;
37231;SDS011;23125;48.156;15.954;2023-09-30T13:25:44;23.95;;;9.80;;
37231;SDS011;23125;48.156;15.954;2023-09-30T13:28:11;20.83;;;9.52;;
37231;SDS011;23125;48.156;15.954;2023-09-30T13:30:37;20.73;;;8.98;;
37231;SDS011;23125;48.156;15.954;2023-09-30T13:33:03;21.13;;;9.52;;
37231;SDS011;23125;48.156;15.954;2023-09-30T13:35:30;21.95;;;9.85;;
37231;SDS011;23125;48.156;15.954;2023-09-30T13:37:57;23.88;;;10.05;;
37231;SDS011;23125;48.156;15.954;2023-09-30T13:40:23;22.23;;;9.65;;
37231;SDS011;23125;48.156;15.954;2023-09-30T13:42:49;24.20;;;9.77;;
37231;SDS011;23125;48.156;15.954;2023-09-30T13:45:15;19.60;;;8.80;;
37231;SDS011;23125;48.156;15.954;2023-09-30T13:47:44;21.05;;;9.05;;
37231;SDS011;23125;48.156;15.954;2023-09-30T13:50:10;22.13;;;9.40;;
37231;SDS011;23125;48.156;15.954;2023-09-30T13:52:36;26.40;;;10.52;;
37231;SDS011;23125;48.156;15.954;2023-09-30T13:55:02;22.30;;;9.77;;
37231;SDS011;23125;48.156;15.954;2023-09-30T13:57:30;21.92;;;9.65;;
37231;SDS011;23125;48.156;15.954;2023-09-30T13:59:56;22.75;;;9.82;;
37231;SDS011;23125;48.156;15.954;2023-09-30T14:02:22;24.65;;;9.57;;
37231;SDS011;23125;48.156;15.954;2023-09-30T14:04:49;22.92;;;9.20;;
37231;SDS011;23125;48.156;15.954;2023-09-30T14:07:15;22.38;;;9.32;;
37231;SDS011;23125;48.156;15.954;2023-09-30T14:09:44;22.07;;;9.20;;
37231;SDS011;23125;48.156;15.954;2023-09-30T14:12:10;19.45;;;8.85;;
37231;SDS011;23125;48.156;15.954;2023-09-30T14:14:37;23.95;;;10.23;;
37231;SDS011;23125;48.156;15.954;2023-09-30T14:17:03;20.55;;;9.35;;
37231;SDS011;23125;48.156;15.954;2023-09-30T14:19:35;19.85;;;9.48;;
37231;SDS011;23125;48.156;15.954;2023-09-30T14:22:03;24.45;;;9.93;;
37231;SDS011;23125;48.156;15.954;2023-09-30T14:24:30;22.23;;;9.90;;
37231;SDS011;23125;48.156;15.954;2023-09-30T14:26:58;20.23;;;9.17;;
37231;SDS011;23125;48.156;15.954;2023-09-30T14:29:25;24.98;;;10.10;;
37231;SDS011;23125;48.156;15.954;2023-09-30T14:31:51;19.38;;;9.23;;
37231;SDS011;23125;48.156;15.954;2023-09-30T14:34:17;20.98;;;8.95;;
37231;SDS011;23125;48.156;15.954;2023-09-30T14:36:43;19.23;;;8.77;;
37231;SDS011;23125;48.156;15.954;2023-09-30T14:39:10;20.05;;;9.65;;
37231;SDS011;23125;48.156;15.954;2023-09-30T14:41:36;24.27;;;10.90;;
37231;SDS011;23125;48.156;15.954;2023-09-30T14:44:03;17.92;;;8.73;;
37231;SDS011;23125;48.156;15.954;2023-09-30T14:46:35;19.63;;;8.73;;
37231;SDS011;23125;48.156;15.954;2023-09-30T14:49:01;20.85;;;9.00;;